Time;durP1;ratioP1;P1;durP2;ratioP2;P2;SDS_P1;SDS_P2;PMS_P1;PMS_P2;Temp;Humidity;BMP_temperature;BMP_pressure;BME280_temperature;BME280_humidity;BME280_pressure;Samples;Min_cycle;Max_cycle;Signal;HPM_P1;HPM_P2
2023/05/14 00:00:27;;;;;;;11.95;7.47;;;14.70;99.90;;;;;;5063449;28;20055;-77
2023/05/14 00:02:53;;;;;;;12.32;7.25;;;14.70;99.90;;;;;;5063621;28;20040;-77
2023/05/14 00:05:19;;;;;;;11.23;7.25;;;14.70;99.90;;;;;;5062230;28;20477;-76
2023/05/14 00:07:44;;;;;;;12.13;7.53;;;14.60;99.90;;;;;;5063007;28;20085;-75
2023/05/14 00:10:10;;;;;;;12.77;7.53;;;14.60;99.90;;;;;;5063592;28;20084;-76
2023/05/14 00:12:36;;;;;;;9.88;7.15;;;14.50;99.90;;;;;;5062046;28;20029;-77
2023/05/14 00:15:01;;;;;;;15.43;7.55;;;14.50;99.90;;;;;;5063142;28;20048;-77
2023/05/14 00:17:27;;;;;;;13.82;7.75;;;14.40;99.90;;;;;;5063510;28;20029;-76
2023/05/14 00:19:52;;;;;;;14.43;8.05;;;14.40;99.90;;;;;;5061751;28;20036;-76
2023/05/14 00:22:18;;;;;;;13.35;7.60;;;14.40;99.90;;;;;;5062929;28;20025;-76
2023/05/14 00:24:44;;;;;;;10.68;7.72;;;14.40;99.90;;;;;;5061856;28;20063;-76
2023/05/14 00:27:09;;;;;;;10.30;7.78;;;14.40;99.90;;;;;;5062937;28;20473;-76
2023/05/14 00:29:35;;;;;;;16.58;8.13;;;14.20;99.90;;;;;;5061837;28;20032;-76
2023/05/14 00:32:01;;;;;;;8.98;7.32;;;14.40;99.90;;;;;;5061862;28;20028;-77
2023/05/14 00:34:27;;;;;;;13.15;8.45;;;14.40;99.90;;;;;;5063081;28;20030;-77
2023/05/14 00:36:52;;;;;;;12.98;7.43;;;14.30;99.90;;;;;;5061586;28;20029;-77
2023/05/14 00:39:18;;;;;;;12.45;7.50;;;14.30;99.90;;;;;;5061657;28;20025;-77
2023/05/14 00:41:43;;;;;;;16.30;8.30;;;14.20;99.90;;;;;;5060512;28;20024;-77
2023/05/14 00:44:09;;;;;;;13.98;7.88;;;14.30;99.90;;;;;;5062800;28;20115;-76
2023/05/14 00:46:34;;;;;;;15.30;8.30;;;14.10;99.90;;;;;;5061354;28;20032;-76
2023/05/14 00:49:00;;;;;;;11.60;8.57;;;14.10;99.90;;;;;;5062530;28;20039;-76
2023/05/14 00:51:26;;;;;;;15.30;8.02;;;14.10;99.90;;;;;;5062939;28;20075;-76
2023/05/14 00:53:52;;;;;;;14.75;8.13;;;14.10;99.90;;;;;;5060451;28;20033;-75
2023/05/14 00:56:18;;;;;;;19.35;8.68;;;14.20;99.90;;;;;;5060974;28;20553;-76
2023/05/14 00:58:44;;;;;;;14.60;8.13;;;14.10;99.90;;;;;;5061126;28;21342;-77
2023/05/14 01:01:11;;;;;;;12.18;8.05;;;14.00;99.90;;;;;;5062136;28;20033;-76
2023/05/14 01:03:37;;;;;;;10.77;8.05;;;14.00;99.90;;;;;;5060879;28;20036;-75
2023/05/14 01:06:22;;;;;;;11.55;7.80;;;14.00;99.90;;;;;;5061256;28;20028;-77
2023/05/14 01:09:15;;;;;;;13.45;8.10;;;13.90;99.90;;;;;;5062021;28;20060;-77
2023/05/14 01:11:52;;;;;;;11.13;7.90;;;13.90;99.90;;;;;;5060873;28;20033;-77
2023/05/14 01:14:24;;;;;;;14.68;8.18;;;13.90;99.90;;;;;;5060724;28;20033;-76
2023/05/14 01:16:54;;;;;;;15.75;9.00;;;13.90;99.90;;;;;;5060352;28;20482;-77
2023/05/14 01:19:41;;;;;;;15.70;8.43;;;13.90;99.90;;;;;;5061708;28;20040;-77
2023/05/14 01:22:07;;;;;;;10.75;8.23;;;13.80;99.90;;;;;;5060944;28;20083;-76
2023/05/14 01:24:33;;;;;;;15.82;8.60;;;13.80;99.90;;;;;;5061952;28;20505;-77
2023/05/14 01:27:39;;;;;;;13.60;8.55;;;13.80;99.90;;;;;;5060928;28;20017;-77
2023/05/14 01:30:32;;;;;;;12.88;8.57;;;13.80;99.90;;;;;;5062037;28;20036;-76
2023/05/14 01:33:01;;;;;;;11.38;7.88;;;13.80;99.90;;;;;;5061395;28;20175;-76
2023/05/14 01:35:28;;;;;;;14.15;8.57;;;13.70;99.90;;;;;;5061779;28;20035;-77
2023/05/14 01:38:00;;;;;;;18.05;9.00;;;13.90;99.90;;;;;;5061120;28;20028;-76
2023/05/14 01:40:26;;;;;;;14.80;8.38;;;13.60;99.90;;;;;;5060735;28;20083;-76
2023/05/14 01:42:52;;;;;;;13.25;8.43;;;13.70;99.90;;;;;;5060035;28;20033;-76
2023/05/14 01:45:22;;;;;;;12.48;8.60;;;13.70;99.90;;;;;;5061651;28;20021;-76
2023/05/14 01:47:48;;;;;;;14.13;8.57;;;13.60;99.90;;;;;;5059911;28;20573;-76
2023/05/14 01:50:14;;;;;;;11.10;8.18;;;13.70;99.90;;;;;;5060373;28;20067;-76
2023/05/14 01:52:39;;;;;;;11.85;8.73;;;13.60;99.90;;;;;;5061272;28;20021;-77
2023/05/14 01:55:06;;;;;;;15.75;8.82;;;13.70;99.90;;;;;;5061756;28;20025;-77
2023/05/14 01:57:31;;;;;;;12.45;8.88;;;13.60;99.90;;;;;;5061434;28;20025;-77
2023/05/14 01:59:57;;;;;;;12.13;8.65;;;13.60;99.90;;;;;;5061886;28;20029;-76
2023/05/14 02:02:22;;;;;;;14.40;8.82;;;13.50;99.90;;;;;;5059986;28;20092;-76
2023/05/14 02:04:49;;;;;;;13.30;8.65;;;13.60;99.90;;;;;;5061261;28;20568;-77
2023/05/14 02:07:15;;;;;;;12.77;9.10;;;13.50;99.90;;;;;;5060126;28;20485;-75
2023/05/14 02:09:40;;;;;;;13.73;8.85;;;13.40;99.90;;;;;;5061620;28;20055;-77
2023/05/14 02:12:12;;;;;;;14.68;9.10;;;13.40;99.90;;;;;;5060111;28;20032;-76
2023/05/14 02:14:38;;;;;;;14.15;9.43;;;13.40;99.90;;;;;;5061536;28;20041;-77
2023/05/14 02:17:04;;;;;;;11.38;9.20;;;13.30;99.90;;;;;;5060230;28;20025;-75
2023/05/14 02:19:29;;;;;;;14.90;9.10;;;13.20;99.90;;;;;;5060952;28;20025;-76
2023/05/14 02:21:55;;;;;;;12.55;8.98;;;13.20;99.90;;;;;;5060672;28;20013;-75
2023/05/14 02:24:21;;;;;;;12.30;9.00;;;13.10;99.90;;;;;;5061396;28;20032;-76
2023/05/14 02:26:47;;;;;;;16.80;9.10;;;13.20;99.90;;;;;;5059836;28;20036;-76
2023/05/14 02:29:12;;;;;;;13.57;9.35;;;13.10;99.90;;;;;;5060109;28;20128;-76
2023/05/14 02:31:38;;;;;;;14.50;9.60;;;13.10;99.90;;;;;;5063402;28;20048;-76
2023/05/14 02:34:05;;;;;;;17.02;9.60;;;13.00;99.90;;;;;;5063542;28;20033;-75
2023/05/14 02:36:31;;;;;;;12.77;9.80;;;13.00;99.90;;;;;;5063814;28;20032;-75
2023/05/14 02:38:58;;;;;;;13.10;10.00;;;13.10;99.90;;;;;;5065470;28;20021;-75
2023/05/14 02:41:24;;;;;;;13.52;9.40;;;13.00;99.90;;;;;;5064458;28;20036;-75
2023/05/14 02:43:49;;;;;;;14.77;10.57;;;12.90;99.90;;;;;;5063819;28;20021;-76
2023/05/14 02:46:15;;;;;;;16.40;10.32;;;12.90;99.90;;;;;;5064760;28;20036;-75
2023/05/14 02:48:40;;;;;;;12.38;9.60;;;12.90;99.90;;;;;;5063178;28;20076;-76
2023/05/14 02:51:06;;;;;;;13.52;9.90;;;12.90;99.90;;;;;;5063120;28;20036;-75
2023/05/14 02:53:32;;;;;;;15.40;10.40;;;12.80;99.90;;;;;;5064798;28;20025;-75
2023/05/14 02:55:58;;;;;;;14.95;10.13;;;12.70;99.90;;;;;;5065114;28;20053;-78
2023/05/14 02:58:23;;;;;;;15.27;9.98;;;12.80;99.90;;;;;;5064917;28;20052;-76
2023/05/14 03:00:49;;;;;;;13.35;10.15;;;12.70;99.90;;;;;;5063230;28;20541;-76
2023/05/14 03:03:14;;;;;;;16.17;10.52;;;12.70;99.90;;;;;;5064616;28;20032;-75
2023/05/14 03:05:40;;;;;;;16.30;10.50;;;12.70;99.90;;;;;;5064669;28;20098;-76
2023/05/14 03:08:05;;;;;;;13.88;9.90;;;12.70;99.90;;;;;;5064286;28;20040;-75
2023/05/14 03:10:31;;;;;;;15.10;10.73;;;12.70;99.90;;;;;;5064851;28;20031;-76
2023/05/14 03:12:57;;;;;;;19.23;10.73;;;12.60;99.90;;;;;;5065028;28;20043;-76
2023/05/14 03:15:22;;;;;;;17.52;10.50;;;12.60;99.90;;;;;;5063849;28;20064;-75
2023/05/14 03:17:48;;;;;;;15.90;11.05;;;12.60;99.90;;;;;;5062848;28;20028;-76
2023/05/14 03:20:14;;;;;;;14.60;9.95;;;12.60;99.90;;;;;;5063031;28;20029;-75
2023/05/14 03:22:39;;;;;;;19.20;11.18;;;12.60;99.90;;;;;;5064028;28;20073;-75
2023/05/14 03:25:05;;;;;;;16.67;10.50;;;12.50;99.90;;;;;;5063089;28;20028;-75
2023/05/14 03:27:32;;;;;;;19.15;10.73;;;12.50;99.90;;;;;;5063775;28;20063;-76
2023/05/14 03:29:57;;;;;;;16.67;10.80;;;12.40;99.90;;;;;;5064234;28;20025;-76
2023/05/14 03:32:23;;;;;;;18.85;10.95;;;12.40;99.90;;;;;;5064216;28;20044;-76
2023/05/14 03:34:48;;;;;;;19.90;11.82;;;12.40;99.90;;;;;;5062866;28;20017;-75
2023/05/14 03:37:14;;;;;;;20.98;11.85;;;12.40;99.90;;;;;;5062697;28;20029;-76
2023/05/14 03:39:39;;;;;;;15.65;11.23;;;12.30;99.90;;;;;;5062877;28;20488;-77
2023/05/14 03:42:05;;;;;;;14.93;11.90;;;12.40;99.90;;;;;;5063759;28;20036;-76
2023/05/14 03:44:31;;;;;;;15.73;11.65;;;12.30;99.90;;;;;;5063814;28;20394;-76
2023/05/14 03:46:56;;;;;;;19.45;11.68;;;12.30;99.90;;;;;;5063940;28;20080;-77
2023/05/14 03:49:22;;;;;;;17.25;11.38;;;12.40;99.90;;;;;;5063537;28;20041;-76
2023/05/14 03:51:47;;;;;;;20.17;11.43;;;12.40;99.90;;;;;;5063773;28;20466;-76
2023/05/14 03:54:13;;;;;;;17.83;11.60;;;12.40;99.90;;;;;;5063820;28;20657;-76
2023/05/14 03:56:38;;;;;;;15.63;11.38;;;12.30;99.90;;;;;;5062046;28;20032;-75
2023/05/14 03:59:04;;;;;;;17.27;11.68;;;12.40;99.90;;;;;;5063888;28;20029;-76
2023/05/14 04:01:29;;;;;;;17.63;11.38;;;12.40;99.90;;;;;;5063866;28;20025;-74
2023/05/14 04:03:55;;;;;;;18.65;11.43;;;12.40;99.90;;;;;;5063299;28;20017;-76
2023/05/14 04:06:21;;;;;;;26.52;12.00;;;12.40;99.90;;;;;;5062282;28;20017;-74
2023/05/14 04:08:46;;;;;;;18.23;11.27;;;12.40;99.90;;;;;;5061801;28;20127;-76
2023/05/14 04:11:12;;;;;;;14.77;11.30;;;12.50;99.90;;;;;;5062039;28;20021;-76
2023/05/14 04:13:37;;;;;;;13.52;10.80;;;12.50;99.90;;;;;;5062202;28;20017;-75
2023/05/14 04:16:03;;;;;;;16.80;11.63;;;12.50;99.90;;;;;;5063012;28;20036;-76
2023/05/14 04:18:29;;;;;;;16.95;10.90;;;12.60;99.90;;;;;;5063281;28;20025;-77
2023/05/14 04:20:55;;;;;;;15.65;10.98;;;12.60;99.90;;;;;;5062482;28;20057;-76
2023/05/14 04:23:20;;;;;;;17.67;11.40;;;12.60;99.90;;;;;;5062633;28;20032;-75
2023/05/14 04:25:46;;;;;;;18.13;11.45;;;12.70;99.90;;;;;;5061655;28;20334;-76
2023/05/14 04:28:12;;;;;;;13.85;10.55;;;12.70;99.90;;;;;;5061933;28;20037;-75
2023/05/14 04:30:37;;;;;;;13.20;10.52;;;12.80;99.90;;;;;;5061627;28;20037;-77
2023/05/14 04:33:03;;;;;;;15.25;10.57;;;12.90;99.90;;;;;;5062935;28;20486;-76
2023/05/14 04:35:28;;;;;;;17.98;10.52;;;12.90;99.90;;;;;;5061925;28;20024;-76
2023/05/14 04:37:54;;;;;;;20.80;10.30;;;12.90;99.90;;;;;;5061489;28;20484;-76
2023/05/14 04:40:21;;;;;;;13.68;10.25;;;13.00;99.90;;;;;;5061511;28;20900;-76
2023/05/14 04:42:46;;;;;;;13.80;10.00;;;13.00;99.90;;;;;;5062361;28;20017;-77
2023/05/14 04:45:12;;;;;;;14.75;10.65;;;13.00;99.90;;;;;;5062488;28;20130;-76
2023/05/14 04:47:38;;;;;;;18.38;10.13;;;13.10;99.90;;;;;;5060861;28;20049;-76
2023/05/14 04:50:05;;;;;;;14.48;10.00;;;13.20;99.90;;;;;;5061654;28;20021;-75
2023/05/14 04:52:31;;;;;;;14.88;10.25;;;13.20;99.90;;;;;;5061403;28;20127;-74
2023/05/14 04:54:57;;;;;;;13.85;10.68;;;13.30;99.90;;;;;;5062741;28;20025;-76
2023/05/14 04:57:22;;;;;;;12.73;10.10;;;13.30;99.90;;;;;;5061406;28;20048;-77
2023/05/14 04:59:48;;;;;;;13.18;10.43;;;13.40;99.90;;;;;;5062226;28;20043;-76
2023/05/14 05:02:13;;;;;;;15.63;9.60;;;13.40;99.90;;;;;;5061183;28;20024;-76
2023/05/14 05:04:39;;;;;;;13.55;9.60;;;13.50;99.90;;;;;;5062692;28;20031;-74
2023/05/14 05:07:04;;;;;;;15.52;10.10;;;13.50;99.90;;;;;;5061100;28;20032;-78
2023/05/14 05:09:31;;;;;;;15.35;9.55;;;13.70;99.90;;;;;;5061040;28;20049;-76
2023/05/14 05:11:56;;;;;;;14.25;9.95;;;13.70;99.90;;;;;;5061690;28;20178;-74
2023/05/14 05:14:22;;;;;;;12.95;10.20;;;13.70;99.90;;;;;;5060223;28;20036;-74
2023/05/14 05:16:47;;;;;;;13.63;10.20;;;13.70;99.90;;;;;;5060706;28;20047;-74
2023/05/14 05:19:13;;;;;;;12.88;10.10;;;13.80;99.90;;;;;;5060881;28;20086;-73
2023/05/14 05:21:39;;;;;;;12.98;10.10;;;13.80;99.90;;;;;;5061733;28;20037;-74
2023/05/14 05:24:06;;;;;;;12.38;9.60;;;13.90;99.90;;;;;;5061689;28;20024;-74
2023/05/14 05:26:31;;;;;;;13.60;10.10;;;13.90;99.90;;;;;;5062178;28;20021;-73
2023/05/14 05:28:57;;;;;;;14.30;10.75;;;14.00;99.90;;;;;;5061815;28;20075;-74
2023/05/14 05:31:23;;;;;;;19.38;9.73;;;14.00;99.90;;;;;;5059227;28;20397;-74
2023/05/14 05:33:48;;;;;;;15.88;10.45;;;14.00;99.90;;;;;;5061598;28;20032;-74
2023/05/14 05:36:14;;;;;;;13.48;10.00;;;14.00;99.90;;;;;;5060529;28;20066;-74
2023/05/14 05:38:40;;;;;;;12.20;10.25;;;14.10;99.90;;;;;;5060418;28;20025;-73
2023/05/14 05:41:06;;;;;;;13.43;10.15;;;14.10;99.90;;;;;;5060578;28;20485;-74
2023/05/14 05:43:32;;;;;;;14.02;9.73;;;14.20;99.90;;;;;;5060060;28;20028;-74
2023/05/14 05:45:59;;;;;;;15.85;10.55;;;14.20;99.90;;;;;;5061891;28;21102;-73
2023/05/14 05:48:25;;;;;;;16.58;10.43;;;14.30;99.90;;;;;;5058620;28;20060;-72
2023/05/14 05:50:53;;;;;;;15.50;11.00;;;14.30;99.90;;;;;;5061824;28;20029;-73
2023/05/14 05:53:18;;;;;;;15.98;10.40;;;14.40;99.90;;;;;;5061379;28;20035;-73
2023/05/14 05:55:44;;;;;;;14.50;10.40;;;14.40;99.90;;;;;;5061077;28;20052;-72
2023/05/14 05:58:10;;;;;;;14.23;10.50;;;14.40;99.90;;;;;;5059869;28;20040;-72
2023/05/14 06:00:35;;;;;;;22.08;10.30;;;14.40;99.90;;;;;;5061156;28;20033;-73
2023/05/14 06:03:01;;;;;;;13.65;10.50;;;14.50;99.90;;;;;;5059968;28;20116;-73
2023/05/14 06:05:26;;;;;;;14.25;10.38;;;14.60;99.90;;;;;;5064329;28;20036;-73
2023/05/14 06:07:52;;;;;;;13.63;10.57;;;14.60;99.90;;;;;;5064134;28;20099;-72
2023/05/14 06:10:18;;;;;;;14.43;10.70;;;14.60;99.90;;;;;;5062969;28;20421;-73
2023/05/14 06:12:44;;;;;;;14.80;10.88;;;14.70;99.90;;;;;;5059472;28;20033;-72
2023/05/14 06:15:11;;;;;;;13.80;11.02;;;14.80;99.90;;;;;;5064348;28;20056;-74
2023/05/14 06:17:37;;;;;;;15.50;10.77;;;14.80;99.90;;;;;;5062695;28;20036;-75
2023/05/14 06:20:04;;;;;;;15.98;10.32;;;14.90;99.90;;;;;;5063426;28;20036;-73
2023/05/14 06:22:30;;;;;;;12.45;9.98;;;14.90;99.90;;;;;;5064152;28;20029;-72
2023/05/14 06:24:55;;;;;;;14.00;10.75;;;15.00;99.90;;;;;;5065265;28;20025;-73
2023/05/14 06:27:21;;;;;;;14.85;10.80;;;15.10;99.90;;;;;;5063486;28;20029;-72
2023/05/14 06:29:46;;;;;;;15.82;10.32;;;15.10;99.90;;;;;;5064897;28;20034;-73
2023/05/14 06:32:14;;;;;;;13.88;10.35;;;15.20;99.90;;;;;;5062362;28;20029;-72
2023/05/14 06:34:41;;;;;;;14.63;10.98;;;15.30;99.90;;;;;;5062351;28;20033;-73
2023/05/14 06:37:08;;;;;;;17.75;11.07;;;15.30;99.90;;;;;;5062884;28;20023;-74
2023/05/14 06:39:37;;;;;;;14.02;10.90;;;15.30;99.90;;;;;;5061537;28;20116;-74
2023/05/14 06:42:03;;;;;;;15.40;10.60;;;15.30;99.90;;;;;;5064643;28;20033;-73
2023/05/14 06:44:28;;;;;;;20.40;10.32;;;15.40;99.90;;;;;;5063918;28;20054;-73
2023/05/14 06:46:54;;;;;;;13.30;10.02;;;15.40;99.90;;;;;;5061717;28;20389;-74
2023/05/14 06:49:20;;;;;;;19.50;11.00;;;15.50;99.90;;;;;;5065039;28;20036;-70
2023/05/14 06:51:45;;;;;;;14.35;9.93;;;15.50;99.90;;;;;;5063592;28;20025;-74
2023/05/14 06:54:11;;;;;;;16.90;10.32;;;15.70;99.90;;;;;;5064669;28;20025;-73
2023/05/14 06:56:46;;;;;;;12.85;9.65;;;15.60;99.90;;;;;;5061734;28;20058;-74
2023/05/14 06:59:11;;;;;;;12.63;9.20;;;15.70;99.90;;;;;;5064764;28;20050;-73
2023/05/14 07:01:37;;;;;;;13.25;9.45;;;15.70;99.90;;;;;;5060771;28;20037;-73
2023/05/14 07:04:02;;;;;;;13.20;9.32;;;15.80;99.90;;;;;;5063669;28;20118;-75
2023/05/14 07:06:28;;;;;;;12.77;9.35;;;15.90;99.90;;;;;;5064089;28;20021;-74
2023/05/14 07:08:54;;;;;;;10.30;8.60;;;16.00;99.90;;;;;;5059539;28;20053;-73
2023/05/14 07:11:20;;;;;;;14.25;8.70;;;16.00;99.90;;;;;;5060797;28;20061;-70
2023/05/14 07:13:46;;;;;;;10.68;8.57;;;16.20;99.90;;;;;;5061056;28;20043;-73
2023/05/14 07:16:12;;;;;;;12.23;8.50;;;16.10;99.90;;;;;;5059992;28;20021;-73
2023/05/14 07:18:37;;;;;;;10.30;8.48;;;16.20;99.90;;;;;;5062585;28;20424;-74
2023/05/14 07:21:06;;;;;;;10.45;8.18;;;16.20;99.90;;;;;;5064710;28;20040;-73
2023/05/14 07:23:37;;;;;;;14.07;8.57;;;16.30;99.90;;;;;;5063949;28;20028;-74
2023/05/14 07:26:06;;;;;;;10.02;8.25;;;16.30;99.90;;;;;;5063933;28;20031;-73
2023/05/14 07:28:32;;;;;;;10.15;8.52;;;16.40;99.90;;;;;;5061723;28;20037;-73
2023/05/14 07:30:58;;;;;;;12.38;8.77;;;16.50;99.90;;;;;;5063119;28;20017;-73
2023/05/14 07:33:24;;;;;;;12.75;8.20;;;16.50;99.90;;;;;;5060430;28;20032;-73
2023/05/14 07:35:50;;;;;;;10.40;7.53;;;16.60;99.90;;;;;;5062849;28;20029;-74
2023/05/14 07:38:16;;;;;;;10.80;7.68;;;16.70;99.90;;;;;;5062999;28;20028;-73
2023/05/14 07:40:42;;;;;;;11.73;8.27;;;16.80;99.90;;;;;;5063688;28;20021;-73
2023/05/14 07:43:08;;;;;;;10.73;8.50;;;16.80;99.90;;;;;;5061681;28;20043;-74
2023/05/14 07:45:36;;;;;;;10.10;7.38;;;17.00;99.90;;;;;;5061588;28;20029;-73
2023/05/14 07:48:01;;;;;;;9.23;7.57;;;17.00;99.90;;;;;;5062472;28;20033;-73
2023/05/14 07:50:27;;;;;;;9.80;7.50;;;17.20;99.90;;;;;;5064318;28;20158;-73
2023/05/14 07:52:52;;;;;;;11.48;7.68;;;17.30;99.90;;;;;;5061216;28;20029;-73
2023/05/14 07:55:18;;;;;;;9.70;7.05;;;17.30;99.90;;;;;;5059594;28;21101;-73
2023/05/14 07:57:44;;;;;;;10.80;6.65;;;17.40;99.90;;;;;;5058762;28;20029;-72
2023/05/14 08:00:11;;;;;;;8.68;6.82;;;17.50;99.90;;;;;;5061613;28;20487;-74
2023/05/14 08:02:36;;;;;;;10.52;6.50;;;17.70;99.90;;;;;;5061964;28;20080;-74
2023/05/14 08:05:03;;;;;;;9.70;5.97;;;17.80;99.90;;;;;;5063349;28;20052;-74
2023/05/14 08:07:29;;;;;;;9.18;6.18;;;17.90;99.90;;;;;;5061197;28;20090;-74
2023/05/14 08:09:55;;;;;;;7.68;5.90;;;18.00;99.90;;;;;;5060703;28;20036;-72
2023/05/14 08:12:20;;;;;;;8.95;6.80;;;18.20;99.90;;;;;;5060674;28;20484;-73
2023/05/14 08:14:46;;;;;;;9.90;6.90;;;18.20;99.90;;;;;;5059723;28;20044;-73
2023/05/14 08:17:12;;;;;;;9.38;6.68;;;18.30;99.90;;;;;;5062936;28;20021;-73
2023/05/14 08:19:37;;;;;;;7.38;6.10;;;18.30;99.90;;;;;;5061103;28;20017;-73
2023/05/14 08:22:03;;;;;;;7.68;6.05;;;18.40;99.90;;;;;;5062039;28;20028;-73
2023/05/14 08:24:29;;;;;;;9.50;5.90;;;18.30;99.90;;;;;;5062403;28;20470;-73
2023/05/14 08:26:54;;;;;;;6.80;5.53;;;18.50;99.90;;;;;;5061724;28;20067;-74
2023/05/14 08:29:20;;;;;;;8.73;6.30;;;18.70;99.90;;;;;;5061763;28;20033;-72
2023/05/14 08:31:47;;;;;;;7.20;6.13;;;18.90;99.90;;;;;;5056842;28;20079;-73
2023/05/14 08:34:12;;;;;;;7.15;6.03;;;19.10;99.90;;;;;;5061468;28;20025;-74
2023/05/14 08:36:38;;;;;;;7.95;6.25;;;19.10;99.90;;;;;;5062000;28;20028;-74
2023/05/14 08:39:03;;;;;;;10.27;6.32;;;19.30;99.90;;;;;;5060323;28;20033;-74
2023/05/14 08:41:29;;;;;;;7.07;5.85;;;19.40;99.90;;;;;;5060663;28;20025;-75
2023/05/14 08:44:01;;;;;;;9.10;6.40;;;19.50;99.90;;;;;;5062877;28;20452;-75
2023/05/14 08:46:29;;;;;;;7.75;5.05;;;19.60;99.90;;;;;;5060733;28;20127;-72
2023/05/14 08:49:03;;;;;;;7.40;4.88;;;19.70;99.90;;;;;;5060479;28;20056;-74
2023/05/14 08:51:30;;;;;;;6.28;4.60;;;19.80;99.90;;;;;;5057185;28;20044;-74
2023/05/14 08:54:01;;;;;;;6.70;5.05;;;19.90;99.90;;;;;;5056069;28;20083;-73
2023/05/14 08:56:27;;;;;;;7.00;5.35;;;20.00;99.90;;;;;;5056025;28;20033;-73
2023/05/14 08:58:52;;;;;;;5.45;4.90;;;20.00;99.90;;;;;;5057176;28;20071;-74
2023/05/14 09:01:19;;;;;;;5.95;4.88;;;20.10;99.90;;;;;;5054343;28;20045;-72
2023/05/14 09:03:45;;;;;;;10.35;5.35;;;20.20;99.90;;;;;;5055966;28;20028;-73
2023/05/14 09:06:12;;;;;;;6.53;4.68;;;20.30;99.90;;;;;;5059839;28;20108;-73
2023/05/14 09:08:38;;;;;;;6.25;4.82;;;20.30;99.90;;;;;;5059290;28;20077;-69
2023/05/14 09:11:04;;;;;;;7.32;4.88;;;20.40;99.90;;;;;;5060967;28;20413;-74
2023/05/14 09:13:29;;;;;;;6.90;4.80;;;20.40;99.90;;;;;;5061096;28;20071;-73
2023/05/14 09:15:56;;;;;;;10.02;4.55;;;20.40;99.90;;;;;;5059358;28;20036;-73
2023/05/14 09:18:22;;;;;;;6.10;5.03;;;20.50;99.90;;;;;;5059832;28;20092;-72
2023/05/14 09:20:48;;;;;;;7.20;5.13;;;20.50;99.90;;;;;;5060433;28;20032;-68
2023/05/14 09:23:13;;;;;;;8.70;5.13;;;20.60;99.90;;;;;;5060256;28;20037;-72
2023/05/14 09:25:39;;;;;;;9.15;4.97;;;20.50;99.90;;;;;;5060359;28;21299;-70
2023/05/14 09:28:07;;;;;;;6.18;4.72;;;20.50;99.90;;;;;;5061142;28;20029;-74
2023/05/14 09:30:35;;;;;;;6.80;4.40;;;20.50;99.90;;;;;;5062164;28;20500;-72
2023/05/14 09:33:02;;;;;;;9.05;4.55;;;20.50;99.90;;;;;;5058001;28;20021;-74
2023/05/14 09:35:28;;;;;;;7.10;4.38;;;20.50;99.90;;;;;;5061850;28;20021;-74
2023/05/14 09:37:54;;;;;;;6.40;5.10;;;20.50;99.90;;;;;;5060534;28;20097;-71
2023/05/14 09:40:21;;;;;;;6.13;4.80;;;20.40;99.90;;;;;;5059350;28;20416;-74
2023/05/14 09:42:48;;;;;;;8.13;5.43;;;20.30;99.90;;;;;;5058864;28;20029;-73
2023/05/14 09:45:14;;;;;;;5.25;4.63;;;20.20;99.90;;;;;;5059917;28;20131;-73
2023/05/14 09:47:40;;;;;;;8.55;4.70;;;20.20;99.90;;;;;;5058581;28;20049;-73
2023/05/14 09:50:07;;;;;;;6.97;4.50;;;20.10;99.90;;;;;;5059041;28;20537;-71
2023/05/14 09:52:34;;;;;;;5.10;4.30;;;20.20;99.90;;;;;;5061040;28;20036;-73
2023/05/14 09:55:00;;;;;;;8.95;4.40;;;20.20;99.90;;;;;;5059941;28;20051;-75
2023/05/14 09:57:26;;;;;;;6.15;4.47;;;20.30;99.90;;;;;;5059942;28;20040;-74
2023/05/14 09:59:53;;;;;;;5.45;4.55;;;20.50;99.90;;;;;;5059896;28;20031;-72
2023/05/14 10:02:24;;;;;;;5.75;4.63;;;20.60;99.90;;;;;;5057982;28;20039;-72
2023/05/14 10:04:51;;;;;;;8.15;4.53;;;20.70;99.90;;;;;;5060016;28;20041;-72
2023/05/14 10:07:28;;;;;;;6.88;4.45;;;20.60;99.90;;;;;;5059622;28;20508;-71
2023/05/14 10:10:01;;;;;;;7.30;4.63;;;20.60;99.90;;;;;;5060134;28;20045;-73
2023/05/14 10:12:35;;;;;;;5.53;4.40;;;20.50;99.90;;;;;;5057911;28;20033;-71
2023/05/14 10:15:06;;;;;;;7.68;4.72;;;20.50;99.90;;;;;;5060513;28;20052;-72
2023/05/14 10:17:35;;;;;;;5.90;4.22;;;20.40;99.90;;;;;;5059610;28;20029;-74
2023/05/14 10:20:04;;;;;;;7.35;4.20;;;20.50;99.90;;;;;;5059416;28;20056;-72
2023/05/14 10:22:34;;;;;;;6.72;4.43;;;20.50;99.90;;;;;;5058690;28;20036;-70
2023/05/14 10:25:01;;;;;;;5.60;4.38;;;20.50;99.90;;;;;;5057363;28;20029;-70
2023/05/14 10:27:26;;;;;;;7.10;4.70;;;20.60;99.90;;;;;;5058320;28;20037;-70
2023/05/14 10:29:54;;;;;;;6.78;4.60;;;20.70;99.90;;;;;;5053868;28;20037;-72
2023/05/14 10:32:24;;;;;;;6.45;4.88;;;20.80;99.90;;;;;;5055709;28;20032;-73
2023/05/14 10:34:51;;;;;;;6.07;4.50;;;20.80;99.90;;;;;;5059558;28;20037;-70
2023/05/14 10:37:25;;;;;;;6.32;4.15;;;20.80;99.90;;;;;;5059978;28;20021;-72
2023/05/14 10:39:53;;;;;;;4.55;4.00;;;20.90;99.90;;;;;;5060186;28;20124;-72
2023/05/14 10:42:26;;;;;;;5.47;4.68;;;20.90;99.90;;;;;;5060314;28;20425;-73
2023/05/14 10:45:00;;;;;;;5.88;4.25;;;20.90;99.90;;;;;;5059868;28;20017;-71
2023/05/14 10:47:30;;;;;;;5.13;4.40;;;20.90;99.90;;;;;;5059364;28;20049;-69
2023/05/14 10:49:57;;;;;;;6.35;4.43;;;20.90;99.90;;;;;;5061331;28;20044;-73
2023/05/14 10:52:24;;;;;;;6.25;4.18;;;20.80;99.90;;;;;;5063762;28;20021;-73
2023/05/14 10:54:56;;;;;;;4.40;4.00;;;20.80;99.90;;;;;;5060316;28;20093;-73
2023/05/14 10:57:27;;;;;;;8.32;4.28;;;20.80;99.90;;;;;;5064038;28;20031;-73
2023/05/14 10:59:55;;;;;;;6.07;4.05;;;21.00;99.90;;;;;;5063837;28;20025;-72
2023/05/14 11:02:31;;;;;;;6.07;4.45;;;21.20;99.90;;;;;;5063970;28;20090;-72
2023/05/14 11:05:06;;;;;;;5.32;4.20;;;21.30;99.90;;;;;;5063499;28;20040;-72
2023/05/14 11:07:54;;;;;;;5.88;4.13;;;21.40;99.90;;;;;;5062386;28;20068;-74
2023/05/14 11:10:29;;;;;;;5.85;4.32;;;21.70;99.90;;;;;;5061818;28;20036;-74
2023/05/14 11:12:56;;;;;;;6.13;4.18;;;21.90;99.90;;;;;;5062059;28;20381;-71
2023/05/14 11:15:27;;;;;;;6.10;4.43;;;22.30;99.90;;;;;;5061587;28;20029;-71
2023/05/14 11:17:53;;;;;;;4.65;4.13;;;22.40;99.90;;;;;;5059787;28;20035;-70
2023/05/14 11:20:19;;;;;;;6.03;4.60;;;22.50;99.90;;;;;;5057273;28;20029;-72
2023/05/14 11:22:46;;;;;;;7.28;4.43;;;22.50;99.90;;;;;;5061541;28;20028;-69
2023/05/14 11:25:13;;;;;;;7.53;4.28;;;22.50;99.90;;;;;;5061987;28;20045;-74
2023/05/14 11:27:41;;;;;;;5.47;4.05;;;22.60;99.90;;;;;;5062881;28;20044;-74
2023/05/14 11:30:15;;;;;;;6.30;4.20;;;22.60;99.90;;;;;;5062493;28;20028;-72
2023/05/14 11:32:43;;;;;;;4.75;4.18;;;22.80;99.90;;;;;;5061656;28;20075;-71
2023/05/14 11:35:08;;;;;;;6.82;4.43;;;22.80;99.90;;;;;;5061631;28;20029;-70
2023/05/14 11:37:34;;;;;;;5.40;4.20;;;22.80;99.90;;;;;;5063368;28;20025;-72
2023/05/14 11:40:00;;;;;;;7.10;4.60;;;22.80;99.90;;;;;;5062910;28;20025;-69
2023/05/14 11:42:26;;;;;;;7.18;4.22;;;22.80;99.90;;;;;;5061895;28;20029;-67
2023/05/14 11:44:55;;;;;;;8.07;4.35;;;22.80;99.90;;;;;;5062003;28;20029;-73
2023/05/14 11:47:21;;;;;;;5.97;4.30;;;22.90;99.90;;;;;;5062546;28;20053;-72
2023/05/14 11:49:48;;;;;;;8.20;3.95;;;22.90;99.90;;;;;;5046339;28;20087;-73
2023/05/14 11:52:15;;;;;;;6.65;4.20;;;22.90;99.90;;;;;;5063374;28;20021;-70
2023/05/14 11:54:42;;;;;;;7.32;4.32;;;23.00;99.90;;;;;;5062525;28;20033;-71
2023/05/14 11:57:17;;;;;;;8.25;4.38;;;23.10;99.90;;;;;;5060719;28;20115;-73
2023/05/14 11:59:43;;;;;;;8.52;4.70;;;23.20;99.90;;;;;;5060443;28;20561;-74
2023/05/14 12:02:16;;;;;;;9.13;4.28;;;23.40;99.90;;;;;;5061774;28;20025;-73
2023/05/14 12:04:43;;;;;;;5.85;4.40;;;23.40;99.90;;;;;;5062705;28;20112;-72
2023/05/14 12:07:14;;;;;;;8.07;4.43;;;23.50;99.90;;;;;;5062779;28;20068;-73
2023/05/14 12:09:48;;;;;;;8.00;4.22;;;23.50;99.90;;;;;;5060639;28;20036;-69
2023/05/14 12:12:17;;;;;;;6.15;4.00;;;23.50;99.90;;;;;;5062724;28;20031;-73
2023/05/14 12:14:44;;;;;;;4.78;4.18;;;23.50;99.90;;;;;;5062165;28;21288;-69
2023/05/14 12:17:19;;;;;;;8.07;4.57;;;23.50;99.90;;;;;;5062459;28;20410;-73
2023/05/14 12:19:47;;;;;;;5.22;4.15;;;23.10;99.90;;;;;;5061940;28;20028;-69
2023/05/14 12:22:15;;;;;;;7.07;4.32;;;22.80;99.90;;;;;;5056051;28;20021;-69
2023/05/14 12:24:43;;;;;;;5.13;4.50;;;22.60;99.90;;;;;;5058580;28;20033;-69
2023/05/14 12:27:09;;;;;;;6.78;4.72;;;22.40;99.90;;;;;;5058821;28;20036;-69
2023/05/14 12:29:38;;;;;;;5.13;4.40;;;22.40;99.90;;;;;;5059889;28;20097;-73
2023/05/14 12:32:08;;;;;;;6.47;4.45;;;22.50;99.90;;;;;;5058450;28;20028;-69
2023/05/14 12:34:35;;;;;;;9.55;4.43;;;22.60;99.90;;;;;;5057276;28;20056;-74
2023/05/14 12:37:00;;;;;;;6.25;4.38;;;22.80;99.90;;;;;;5058156;28;20029;-76